Amargosa Valley, Nevada Weather observations

Data are for observation ending at time listed.
 Day   Time    Ave.   Ave.  Ave.  Vector   Max.   Stn.    Total    Solar   Ave.  
  of    of     Air    Rel.  Wind   Wind    Wind   Baro.  Precip.   Rad.    Soil  
Year   Day     Temp.  Hum.  Speed  Dir.    Gust   Pres.                    Temp. 
2016   (PST)    F      %     mph   deg.    mph     mb.     in.     W/m2     F   
------------------------------------------------------------------------------
 208    7:30   91.6    14    4.1   120      7.2   929.8    0.00     447    92.7
 208    7:40   92.4    14    4.4   125      6.6   929.8    0.00     481    92.6
 208    7:50   93.2    13    5.1   126      8.0   929.9    0.00     513    92.5
 208    8:00   93.4    13    5.8   128      8.3   929.9    0.00     544    92.5
 208    8:10   94.1    13    5.4   142      8.1   930.1    0.00     574    92.5
 208    8:20   94.5    13    5.2   148      8.9   930.1    0.00     603    92.4
 208    8:30   94.5    13    5.7   155      8.8   930.1    0.00     633    92.4
 208    8:40   95.0    13    4.7   142      9.4   930.0    0.00     661    92.4
 208    8:50   95.1    13    4.8   149      8.0   930.0    0.00     688    92.4
 208    9:00   95.5    13    4.1   154      7.7   930.0    0.00     714    92.4
 208    9:10   96.6    12    4.4   130      8.5   930.0    0.00     740    92.3
 208    9:20   96.7    12    3.8   168     10.0   929.9    0.00     763    92.3
 208    9:30   97.5    12    4.7   171      9.8   929.9    0.00     785    92.3
 208    9:40   97.3    12    5.6   174      9.3   930.0    0.00     807    92.3
 208    9:50   98.3    12    6.9   182     12.1   930.0    0.00     825    92.5
 208   10:00   98.7    12    8.1   182     13.2   930.0    0.00     843    92.5
 208   10:10   99.1    12    6.4   177     12.3   929.9    0.00     859    92.6
 208   10:20  100.1    12    6.9   194     11.8   929.8    0.00     872    92.6
 208   10:30  100.3    12    5.4   175     10.5   929.8    0.00     888    92.7
 208   10:40  100.6    12    7.1   167     11.8   929.8    0.00     901    92.8
 208   10:50  101.0    11    5.7   191     11.5   929.6    0.00     911    92.9
 208   11:00  101.5    11    4.2   192     10.2   929.6    0.00     919    92.9
 208   11:10  101.6    11    4.8   201      9.7   929.4    0.00     926    92.9
 208   11:20  103.1    10    2.5   189      8.3   929.3    0.00     929    93.1
 208   11:30  103.3    10    3.4   135      6.9   929.2    0.00     935    93.2
 208   11:40  103.9    10    4.4   160      9.1   929.1    0.00     938    93.3
 208   11:50  104.0    10    2.6   133      7.4   928.9    0.00     941    93.4
 208   12:00  104.8    10    4.0   207      9.5   928.8    0.00     938    93.5
 208   12:10  104.9    10    2.8   158      7.0   928.7    0.00     938    93.7
 208   12:20  106.4    10    4.1   234     11.2   928.6    0.00     929    93.9
 208   12:30  105.6    10    3.7   224      9.6   928.5    0.00     930    94.1
 208   12:40  106.6    10    2.6   237      7.5   928.3    0.00     925    94.3
 208   12:50  106.6    10    2.5   272      7.0   928.2    0.00     919    94.6
 208   13:00  106.7    10    1.6   328      7.5   928.1    0.00     910    94.8
 208   13:10  107.9    10    1.9   272      6.4   928.0    0.00     895    95.1
 208   13:20  107.7    10    3.0   185      7.7   927.9    0.00     886    95.3
 208   13:30  107.4    10    6.9   172     13.0   927.8    0.00     875    95.6
 208   13:40  107.5    10    4.6   222     10.1   927.6    0.00     865    96.0
 208   13:50  108.3     9    2.3   265     10.9   927.5    0.00     851    96.3
 208   14:00  107.9     9    2.0   269      6.6   927.4    0.00     829    96.7
 208   14:10  107.5     9    3.2   304      8.9   927.2    0.00     805    97.0
 208   14:20  108.1     9    2.3   265      6.8   927.1    0.00     785    97.4
 208   14:30  108.6     9    3.3   294      8.4   926.9    0.00     766    97.7
 208   14:40  108.1     9    3.2   307     11.2   926.8    0.00     745    98.1
 208   14:50  108.1     9    2.7   248      7.1   926.7    0.00     720    98.4
 208   15:00  108.0     9    2.9   252      7.5   926.5    0.00     698    98.7
 208   15:10  107.6     9    3.2   254     10.1   926.5    0.00     239    99.1
 208   15:20  107.7    10    1.9   146      6.4   926.3    0.00      81    99.3
 208   15:30  107.7     9    5.4   191     13.4   926.1    0.00      60    99.6
 208   15:40  107.7     9    3.6   220      8.7   926.0    0.00      57    99.8
 208   15:50  107.5     9    3.7   170      7.9   925.9    0.00      53    99.9
 208   16:00  107.3    10    5.0   167     11.0   925.8    0.00      54    100.1
 208   16:10  107.5     9    2.6   124      7.3   925.7    0.00      54    100.2
 208   16:20  107.6     9    4.1   105      7.8   925.7    0.00      55    100.3
 208   16:30  107.5     9    2.8    80      6.7   925.6    0.00      51    100.4
 208   16:40  107.8     9    1.8    82      6.6   925.5    0.00      51    100.5
 208   16:50  107.9     9    2.1   224      8.7   925.5    0.00      51    100.5
 208   17:00  107.8     9    2.3   282      6.4   925.4    0.00      47    100.6
 208   17:10  107.8     9    1.8   302      8.7   925.4    0.00      41    100.6
 208   17:20  107.6    10    1.3   231      4.9   925.3    0.00      42    100.6
 208   17:30  107.4     9    3.8   308     10.0   925.3    0.00      47    100.6
 208   17:40  107.1     9    3.9   308      7.9   925.3    0.00      36    100.7
 208   17:50  107.2     9    1.9   315      5.5   925.4    0.00      34    100.7
 208   18:00  107.1     9    1.5   304      5.3   925.4    0.00      51    100.7
 208   18:10  107.3     9    0.7    33      3.9   925.4    0.00      43    100.7
 208   18:20  106.7    10    0.1    37      2.4   925.4    0.00      26    100.6
 208   18:30  105.6    10    0.0     0      0.0   925.3    0.00      21    100.6
 208   18:40  104.7    10    0.0     0      0.0   925.3    0.00      16    100.6
 208   18:50  104.4    11    0.0     0      0.0   925.2    0.00       9    100.6
 208   19:00  103.1    11    0.4   119      2.3   925.2    0.00       3    100.6
 208   19:10  102.6    11    1.5   111      2.9   925.2    0.00       3    100.6
 208   19:20  103.0    11    1.0   103      2.3   925.2    0.00       1    100.5
 208   19:30  102.1    12    0.4    75      1.8   925.3    0.00       0    100.6
 208   19:40  100.3    12    0.1    58      1.4   925.4    0.00       0    100.6
 208   19:50   99.2    12    0.7    41      2.9   925.4    0.00       0    100.5
 208   20:00  100.5    12    0.6    44      3.1   925.5    0.00       0    100.5
 208   20:10  100.8    12    0.7    50      2.4   925.5    0.00       0    100.4
 208   20:20  100.2    12    0.6    61      3.5   925.5    0.00       0    100.3
 208   20:30   99.4    12    1.5    72      3.8   925.6    0.00       0    100.3
 208   20:40   98.8    12    1.2    83      4.1   925.7    0.00       0    100.2
 208   20:50   97.5    13    0.0   120      1.2   925.8    0.00       0    100.1
 208   21:00   96.2    13    0.0   115      0.9   925.8    0.00       0    100.1
 208   21:10   96.1    12    0.9    73      3.0   925.8    0.00       0    100.0
 208   21:20   95.8    12    1.2    68      3.6   925.8    0.00       0    99.9
 208   21:30   94.6    13    1.2    72      2.9   925.9    0.00       0    99.8
 208   21:40   93.3    13    1.5    68      3.5   925.9    0.00       0    99.8
 208   21:50   92.8    13    1.0    66      3.6   925.8    0.00       0    99.7
 208   22:00   92.3    13    1.1    64      4.1   925.8    0.00       0    99.6
 208   22:10   90.2    14    0.6   332      3.4   925.8    0.00       0    99.5
 208   22:20   89.1    14    1.0    31      3.0   925.9    0.00       0    99.4
 208   22:30   88.4    15    0.9    38      2.9   926.0    0.00       0    99.3
 208   22:40   87.4    15    0.4    39      2.3   925.9    0.00       0    99.2
 208   22:50   85.8    15    0.2    25      2.9   925.8    0.00       0    99.1
 208   23:00   85.7    15    0.7    32      4.1   925.9    0.00       0    99.0
 208   23:10   86.3    14    2.1    38      5.4   925.9    0.00       0    99.0
 208   23:20   87.5    14    1.7    50      3.5   925.9    0.00       0    98.9
 208   23:30   88.4    14    3.2    61      6.8   925.8    0.00       0    98.7
 208   23:40   90.5    14    4.0    79      5.7   925.8    0.00       0    98.6
 208   23:50   89.9    14    2.0    62      4.5   925.8    0.00       0    98.5
 209    0:00   88.9    15    1.4    39      3.4   925.8    0.00       0    98.4
 209    0:10   86.6    16    0.4    31      3.1   925.8    0.00       0    98.3
 209    0:20   84.8    17    0.4   320      2.9   925.8    0.00       0    98.2
 209    0:30   83.8    18    1.2   314      5.0   925.8    0.00       0    98.2
 209    0:40   83.3    18    0.2    28      2.6   925.9    0.00       0    98.1
 209    0:50   84.4    16    1.3    37      3.6   925.8    0.00       0    98.0
 209    1:00   83.4    17    1.0    34      4.5   925.8    0.00       0    97.8
 209    1:10   82.6    16    1.2    34      5.2   925.8    0.00       0    97.8
 209    1:20   82.4    16    0.8    24      4.2   925.9    0.00       0    97.6
 209    1:30   82.8    17    0.6    26      3.4   925.8    0.00       0    97.6
 209    1:40   83.2    17    1.7    34      4.2   925.9    0.00       0    97.4
 209    1:50   83.8    17    2.8    38      4.7   926.0    0.00       0    97.3
 209    2:00   83.9    17    1.7    37      3.9   926.0    0.00       0    97.2
 209    2:10   84.0    16    2.4    39      5.8   926.0    0.00       0    97.1
 209    2:20   83.4    17    1.3    37      3.7   926.1    0.00       0    97.0
 209    2:30   82.0    18    0.7   331      3.1   926.2    0.00       0    96.9
 209    2:40   81.0    19    0.5   324      2.3   926.2    0.00       0    96.8
 209    2:50   79.7    20    1.4   315      3.8   926.2    0.00       0    96.7
 209    3:00   79.0    20    0.2   321      2.0   926.2    0.00       0    96.6
 209    3:10   78.9    20    0.4   307      3.0   926.2    0.00       0    96.5
 209    3:20   78.7    21    0.6   306      3.1   926.4    0.00       0    96.5
 209    3:30   78.6    21    0.7   308      2.9   926.5    0.00       0    96.4
 209    3:40   78.4    21    0.6   306      2.8   926.6    0.00       0    96.3
 209    3:50   79.3    21    0.1    50      2.9   926.6    0.00       0    96.2
 209    4:00   80.0    21    0.1    59      1.5   926.7    0.00       0    96.1
 209    4:10   80.1    21    0.1   323      1.5   926.8    0.00       0    96.0
 209    4:20   79.1    21    2.0   313      5.8   926.9    0.00       0    95.9
 209    4:30   78.3    21    3.1   311      6.2   927.0    0.00       0    95.8
 209    4:40   78.4    21    1.7   313      5.3   927.1    0.00       0    95.6
 209    4:50   78.0    21    0.7   315      3.5   927.3    0.00       3    95.6
 209    5:00   77.9    21    0.2   319      2.3   927.5    0.00       7    95.5
 209    5:10   77.6    22    0.6   317      3.5   927.6    0.00      14    95.3
 209    5:20   77.7    22    0.2   324      2.0   927.6    0.00      21    95.2
 209    5:30   77.7    22    0.1   309      1.0   927.7    0.00      29    95.1
 209    5:40   77.7    23    0.1   318      0.9   927.8    0.00      75    94.9
 209    5:50   79.4    23    0.0     0      0.0   927.8    0.00     116    94.9
 209    6:00   81.9    22    0.0     0      0.0   928.0    0.00     145    94.7
 209    6:10   82.2    22    0.7   316      2.4   928.2    0.00     176    94.6
 209    6:20   83.2    22    0.2   318      1.2   928.3    0.00     207    94.5
 209    6:30   85.9    20    0.0     0      0.0   928.4    0.00     240    94.3
 209    6:40   87.6    19    0.7   105      2.9   928.5    0.00     273    94.2
 209    6:50   88.5    18    1.9   128      3.3   928.7    0.00     305    94.1
 209    7:00   89.1    17    2.3   140      3.9   928.9    0.00     338    94.0
 209    7:10   89.5    17    2.3   155      3.9   929.0    0.00     371    93.9
 209    7:20   90.6    16    1.8   154      3.3   929.1    0.00     404    93.8

Return to Amargosa Valley, Nevada graphs page.


Western Regional Climate Center,wrcc@dri.edu